sensor_id;sensor_type;location;lat;lon;timestamp;P1;durP1;ratioP1;P2;durP2;ratioP2
28427;SDS011;15662;49.128;8.520;2023-04-07T00:01:50;5.32;;;4.65;;
28427;SDS011;15662;49.128;8.520;2023-04-07T00:04:18;5.18;;;4.68;;
28427;SDS011;15662;49.128;8.520;2023-04-07T00:06:47;5.13;;;4.63;;
28427;SDS011;15662;49.128;8.520;2023-04-07T00:09:14;5.90;;;4.82;;
28427;SDS011;15662;49.128;8.520;2023-04-07T00:11:42;5.07;;;4.57;;
28427;SDS011;15662;49.128;8.520;2023-04-07T00:14:10;5.32;;;4.68;;
28427;SDS011;15662;49.128;8.520;2023-04-07T00:16:38;5.85;;;4.43;;
28427;SDS011;15662;49.128;8.520;2023-04-07T00:19:06;6.25;;;4.80;;
28427;SDS011;15662;49.128;8.520;2023-04-07T00:21:34;4.82;;;4.43;;
28427;SDS011;15662;49.128;8.520;2023-04-07T00:24:02;4.95;;;4.45;;
28427;SDS011;15662;49.128;8.520;2023-04-07T00:26:30;6.18;;;5.03;;
28427;SDS011;15662;49.128;8.520;2023-04-07T00:28:59;5.20;;;4.70;;
28427;SDS011;15662;49.128;8.520;2023-04-07T00:31:27;4.82;;;4.32;;
28427;SDS011;15662;49.128;8.520;2023-04-07T00:33:55;5.05;;;4.53;;
28427;SDS011;15662;49.128;8.520;2023-04-07T00:36:26;4.70;;;4.30;;
28427;SDS011;15662;49.128;8.520;2023-04-07T00:38:54;5.38;;;4.88;;
28427;SDS011;15662;49.128;8.520;2023-04-07T00:41:22;4.78;;;4.30;;
28427;SDS011;15662;49.128;8.520;2023-04-07T00:43:50;5.50;;;4.80;;
28427;SDS011;15662;49.128;8.520;2023-04-07T00:46:19;4.70;;;4.30;;
28427;SDS011;15662;49.128;8.520;2023-04-07T00:48:50;5.00;;;4.60;;
28427;SDS011;15662;49.128;8.520;2023-04-07T00:51:19;5.05;;;4.55;;
28427;SDS011;15662;49.128;8.520;2023-04-07T00:53:48;5.05;;;4.55;;
28427;SDS011;15662;49.128;8.520;2023-04-07T00:56:16;5.00;;;4.50;;
28427;SDS011;15662;49.128;8.520;2023-04-07T00:58:44;5.43;;;4.72;;
28427;SDS011;15662;49.128;8.520;2023-04-07T01:01:18;6.50;;;4.53;;
28427;SDS011;15662;49.128;8.520;2023-04-07T01:03:52;5.32;;;4.53;;
28427;SDS011;15662;49.128;8.520;2023-04-07T01:06:29;6.78;;;4.40;;
28427;SDS011;15662;49.128;8.520;2023-04-07T01:11:50;4.43;;;4.00;;
28427;SDS011;15662;49.128;8.520;2023-04-07T01:14:33;4.85;;;4.38;;
28427;SDS011;15662;49.128;8.520;2023-04-07T01:17:26;4.70;;;4.30;;
28427;SDS011;15662;49.128;8.520;2023-04-07T01:19:57;4.47;;;4.07;;
28427;SDS011;15662;49.128;8.520;2023-04-07T01:22:31;4.43;;;4.03;;
28427;SDS011;15662;49.128;8.520;2023-04-07T01:31:53;4.70;;;4.30;;
28427;SDS011;15662;49.128;8.520;2023-04-07T01:34:23;5.00;;;4.43;;
28427;SDS011;15662;49.128;8.520;2023-04-07T01:36:53;5.53;;;4.60;;
28427;SDS011;15662;49.128;8.520;2023-04-07T01:39:25;4.82;;;4.43;;
28427;SDS011;15662;49.128;8.520;2023-04-07T01:41:54;3.72;;;3.22;;
28427;SDS011;15662;49.128;8.520;2023-04-07T01:44:24;4.53;;;4.13;;
28427;SDS011;15662;49.128;8.520;2023-04-07T01:46:54;6.10;;;4.68;;
28427;SDS011;15662;49.128;8.520;2023-04-07T01:49:23;4.30;;;3.90;;
28427;SDS011;15662;49.128;8.520;2023-04-07T01:51:53;5.47;;;4.63;;
28427;SDS011;15662;49.128;8.520;2023-04-07T01:54:24;4.88;;;4.47;;
28427;SDS011;15662;49.128;8.520;2023-04-07T01:56:53;4.88;;;4.47;;
28427;SDS011;15662;49.128;8.520;2023-04-07T01:59:22;5.22;;;4.82;;
28427;SDS011;15662;49.128;8.520;2023-04-07T02:01:50;4.82;;;4.32;;
28427;SDS011;15662;49.128;8.520;2023-04-07T02:04:34;6.20;;;4.90;;
28427;SDS011;15662;49.128;8.520;2023-04-07T02:07:18;4.63;;;4.25;;
28427;SDS011;15662;49.128;8.520;2023-04-07T02:09:51;5.78;;;4.07;;
28427;SDS011;15662;49.128;8.520;2023-04-07T02:12:25;5.35;;;4.85;;
28427;SDS011;15662;49.128;8.520;2023-04-07T02:15:09;4.43;;;4.03;;
28427;SDS011;15662;49.128;8.520;2023-04-07T02:17:40;4.78;;;4.38;;
28427;SDS011;15662;49.128;8.520;2023-04-07T02:20:12;4.55;;;4.15;;
28427;SDS011;15662;49.128;8.520;2023-04-07T02:22:41;5.07;;;4.57;;
28427;SDS011;15662;49.128;8.520;2023-04-07T02:27:56;5.05;;;4.25;;
28427;SDS011;15662;49.128;8.520;2023-04-07T02:30:26;4.40;;;4.05;;
28427;SDS011;15662;49.128;8.520;2023-04-07T02:32:55;7.05;;;4.68;;
28427;SDS011;15662;49.128;8.520;2023-04-07T02:35:23;4.72;;;4.30;;
28427;SDS011;15662;49.128;8.520;2023-04-07T02:37:51;4.65;;;3.95;;
28427;SDS011;15662;49.128;8.520;2023-04-07T02:40:19;4.38;;;3.97;;
28427;SDS011;15662;49.128;8.520;2023-04-07T02:42:47;6.97;;;4.45;;
28427;SDS011;15662;49.128;8.520;2023-04-07T02:45:15;5.38;;;4.80;;
28427;SDS011;15662;49.128;8.520;2023-04-07T02:47:43;5.38;;;4.45;;
28427;SDS011;15662;49.128;8.520;2023-04-07T02:50:11;4.93;;;4.40;;
28427;SDS011;15662;49.128;8.520;2023-04-07T02:52:39;4.82;;;4.30;;
28427;SDS011;15662;49.128;8.520;2023-04-07T02:55:12;4.50;;;4.10;;
28427;SDS011;15662;49.128;8.520;2023-04-07T02:57:41;5.30;;;4.18;;
28427;SDS011;15662;49.128;8.520;2023-04-07T03:00:24;4.40;;;3.97;;
28427;SDS011;15662;49.128;8.520;2023-04-07T03:03:00;4.18;;;3.78;;
28427;SDS011;15662;49.128;8.520;2023-04-07T03:05:32;4.15;;;3.75;;
28427;SDS011;15662;49.128;8.520;2023-04-07T03:08:01;4.40;;;4.00;;
28427;SDS011;15662;49.128;8.520;2023-04-07T03:10:29;4.88;;;4.10;;
28427;SDS011;15662;49.128;8.520;2023-04-07T03:12:57;4.57;;;3.97;;
28427;SDS011;15662;49.128;8.520;2023-04-07T03:15:25;4.53;;;4.13;;
28427;SDS011;15662;49.128;8.520;2023-04-07T03:17:54;4.25;;;3.85;;
28427;SDS011;15662;49.128;8.520;2023-04-07T03:20:22;4.57;;;4.07;;
28427;SDS011;15662;49.128;8.520;2023-04-07T03:22:50;5.72;;;4.30;;
28427;SDS011;15662;49.128;8.520;2023-04-07T03:25:25;5.07;;;4.35;;
28427;SDS011;15662;49.128;8.520;2023-04-07T03:27:54;4.88;;;4.38;;
28427;SDS011;15662;49.128;8.520;2023-04-07T03:30:24;4.43;;;4.03;;
28427;SDS011;15662;49.128;8.520;2023-04-07T03:32:52;4.53;;;4.03;;
28427;SDS011;15662;49.128;8.520;2023-04-07T03:35:20;4.57;;;4.18;;
28427;SDS011;15662;49.128;8.520;2023-04-07T03:37:48;4.15;;;3.85;;
28427;SDS011;15662;49.128;8.520;2023-04-07T03:40:17;5.32;;;4.53;;
28427;SDS011;15662;49.128;8.520;2023-04-07T03:42:46;5.30;;;4.80;;
28427;SDS011;15662;49.128;8.520;2023-04-07T03:45:16;4.88;;;4.30;;
28427;SDS011;15662;49.128;8.520;2023-04-07T03:47:49;5.43;;;4.60;;
28427;SDS011;15662;49.128;8.520;2023-04-07T03:50:17;4.70;;;4.20;;
28427;SDS011;15662;49.128;8.520;2023-04-07T03:52:53;4.93;;;4.53;;
28427;SDS011;15662;49.128;8.520;2023-04-07T03:55:26;5.15;;;4.65;;
28427;SDS011;15662;49.128;8.520;2023-04-07T03:57:59;4.85;;;4.45;;
28427;SDS011;15662;49.128;8.520;2023-04-07T04:03:05;4.88;;;4.47;;
28427;SDS011;15662;49.128;8.520;2023-04-07T04:05:37;4.68;;;4.28;;
28427;SDS011;15662;49.128;8.520;2023-04-07T04:08:08;6.00;;;4.70;;
28427;SDS011;15662;49.128;8.520;2023-04-07T04:10:39;5.72;;;5.15;;
28427;SDS011;15662;49.128;8.520;2023-04-07T04:13:08;6.45;;;5.22;;
28427;SDS011;15662;49.128;8.520;2023-04-07T04:15:37;5.78;;;5.28;;
28427;SDS011;15662;49.128;8.520;2023-04-07T04:18:10;5.90;;;5.20;;
28427;SDS011;15662;49.128;8.520;2023-04-07T04:20:38;4.88;;;4.47;;
28427;SDS011;15662;49.128;8.520;2023-04-07T04:23:07;5.25;;;4.70;;
28427;SDS011;15662;49.128;8.520;2023-04-07T04:25:35;6.47;;;5.80;;
28427;SDS011;15662;49.128;8.520;2023-04-07T04:28:08;5.65;;;5.15;;
28427;SDS011;15662;49.128;8.520;2023-04-07T04:30:36;5.78;;;5.20;;
28427;SDS011;15662;49.128;8.520;2023-04-07T04:33:04;5.30;;;4.80;;
28427;SDS011;15662;49.128;8.520;2023-04-07T04:36:18;4.72;;;4.32;;
28427;SDS011;15662;49.128;8.520;2023-04-07T04:38:46;5.07;;;4.60;;
28427;SDS011;15662;49.128;8.520;2023-04-07T04:41:17;5.22;;;4.72;;
28427;SDS011;15662;49.128;8.520;2023-04-07T04:43:45;5.13;;;4.45;;
28427;SDS011;15662;49.128;8.520;2023-04-07T04:46:18;5.18;;;4.75;;
28427;SDS011;15662;49.128;8.520;2023-04-07T04:48:47;4.88;;;4.47;;
28427;SDS011;15662;49.128;8.520;2023-04-07T04:51:17;5.18;;;4.68;;
28427;SDS011;15662;49.128;8.520;2023-04-07T04:53:49;5.22;;;4.82;;
28427;SDS011;15662;49.128;8.520;2023-04-07T04:56:18;5.95;;;5.35;;
28427;SDS011;15662;49.128;8.520;2023-04-07T04:58:48;6.28;;;5.68;;
28427;SDS011;15662;49.128;8.520;2023-04-07T05:01:28;5.88;;;5.38;;
28427;SDS011;15662;49.128;8.520;2023-04-07T05:04:06;6.13;;;5.55;;
28427;SDS011;15662;49.128;8.520;2023-04-07T05:06:40;5.90;;;5.35;;
28427;SDS011;15662;49.128;8.520;2023-04-07T05:09:11;6.60;;;5.97;;
28427;SDS011;15662;49.128;8.520;2023-04-07T05:11:43;7.30;;;6.25;;
28427;SDS011;15662;49.128;8.520;2023-04-07T05:14:11;6.03;;;5.50;;
28427;SDS011;15662;49.128;8.520;2023-04-07T05:16:43;6.30;;;5.70;;
28427;SDS011;15662;49.128;8.520;2023-04-07T05:19:17;6.55;;;5.95;;
28427;SDS011;15662;49.128;8.520;2023-04-07T05:21:45;7.20;;;6.50;;
28427;SDS011;15662;49.128;8.520;2023-04-07T05:24:13;6.55;;;5.93;;
28427;SDS011;15662;49.128;8.520;2023-04-07T05:26:45;7.15;;;6.45;;
28427;SDS011;15662;49.128;8.520;2023-04-07T05:29:13;6.82;;;5.95;;
28427;SDS011;15662;49.128;8.520;2023-04-07T05:31:43;7.78;;;6.85;;
28427;SDS011;15662;49.128;8.520;2023-04-07T05:34:13;6.87;;;6.27;;
28427;SDS011;15662;49.128;8.520;2023-04-07T05:36:48;6.50;;;5.82;;
28427;SDS011;15662;49.128;8.520;2023-04-07T05:39:15;7.28;;;6.57;;
28427;SDS011;15662;49.128;8.520;2023-04-07T05:41:45;7.60;;;6.63;;
28427;SDS011;15662;49.128;8.520;2023-04-07T05:44:14;7.22;;;6.53;;
28427;SDS011;15662;49.128;8.520;2023-04-07T05:46:42;8.82;;;7.20;;
28427;SDS011;15662;49.128;8.520;2023-04-07T05:49:10;7.97;;;7.18;;
28427;SDS011;15662;49.128;8.520;2023-04-07T05:51:51;9.38;;;6.72;;
28427;SDS011;15662;49.128;8.520;2023-04-07T05:54:19;9.05;;;7.68;;
28427;SDS011;15662;49.128;8.520;2023-04-07T05:56:48;7.75;;;6.95;;
28427;SDS011;15662;49.128;8.520;2023-04-07T05:59:17;7.57;;;6.82;;
28427;SDS011;15662;49.128;8.520;2023-04-07T06:01:45;7.65;;;6.85;;
28427;SDS011;15662;49.128;8.520;2023-04-07T06:04:13;8.13;;;6.75;;
28427;SDS011;15662;49.128;8.520;2023-04-07T06:06:46;6.75;;;6.05;;
28427;SDS011;15662;49.128;8.520;2023-04-07T06:09:14;9.20;;;7.80;;
28427;SDS011;15662;49.128;8.520;2023-04-07T06:11:42;8.25;;;7.10;;
28427;SDS011;15662;49.128;8.520;2023-04-07T06:14:10;8.38;;;7.28;;
28427;SDS011;15662;49.128;8.520;2023-04-07T06:16:38;10.27;;;7.10;;
28427;SDS011;15662;49.128;8.520;2023-04-07T06:19:10;6.85;;;6.15;;
28427;SDS011;15662;49.128;8.520;2023-04-07T06:21:38;6.15;;;5.65;;
28427;SDS011;15662;49.128;8.520;2023-04-07T06:24:07;7.07;;;5.82;;
28427;SDS011;15662;49.128;8.520;2023-04-07T06:26:35;7.15;;;6.43;;
28427;SDS011;15662;49.128;8.520;2023-04-07T06:29:03;5.50;;;5.00;;
28427;SDS011;15662;49.128;8.520;2023-04-07T06:31:31;6.20;;;5.60;;
28427;SDS011;15662;49.128;8.520;2023-04-07T06:33:59;5.90;;;5.32;;
28427;SDS011;15662;49.128;8.520;2023-04-07T06:36:27;6.05;;;5.45;;
28427;SDS011;15662;49.128;8.520;2023-04-07T06:38:56;5.90;;;5.18;;
28427;SDS011;15662;49.128;8.520;2023-04-07T06:41:24;5.18;;;4.68;;
28427;SDS011;15662;49.128;8.520;2023-04-07T06:43:53;6.07;;;5.28;;
28427;SDS011;15662;49.128;8.520;2023-04-07T06:46:21;6.63;;;5.18;;
28427;SDS011;15662;49.128;8.520;2023-04-07T06:48:49;4.15;;;3.85;;
28427;SDS011;15662;49.128;8.520;2023-04-07T06:51:17;4.50;;;4.10;;
28427;SDS011;15662;49.128;8.520;2023-04-07T06:53:45;4.82;;;3.67;;
28427;SDS011;15662;49.128;8.520;2023-04-07T06:56:15;4.40;;;4.10;;
28427;SDS011;15662;49.128;8.520;2023-04-07T06:58:43;4.40;;;4.10;;
28427;SDS011;15662;49.128;8.520;2023-04-07T07:01:11;4.70;;;4.30;;
28427;SDS011;15662;49.128;8.520;2023-04-07T07:03:38;5.32;;;4.22;;
28427;SDS011;15662;49.128;8.520;2023-04-07T07:06:07;4.20;;;3.90;;
28427;SDS011;15662;49.128;8.520;2023-04-07T07:08:35;4.65;;;4.25;;
28427;SDS011;15662;49.128;8.520;2023-04-07T07:11:03;4.90;;;4.50;;
28427;SDS011;15662;49.128;8.520;2023-04-07T07:13:32;11.80;;;4.47;;
28427;SDS011;15662;49.128;8.520;2023-04-07T07:16:01;5.00;;;4.60;;
28427;SDS011;15662;49.128;8.520;2023-04-07T07:18:29;6.32;;;4.60;;
28427;SDS011;15662;49.128;8.520;2023-04-07T07:20:58;7.65;;;4.90;;
28427;SDS011;15662;49.128;8.520;2023-04-07T07:23:26;5.10;;;4.60;;
28427;SDS011;15662;49.128;8.520;2023-04-07T07:25:54;5.22;;;4.63;;
28427;SDS011;15662;49.128;8.520;2023-04-07T07:28:22;4.95;;;4.50;;
28427;SDS011;15662;49.128;8.520;2023-04-07T07:30:50;4.80;;;4.30;;
28427;SDS011;15662;49.128;8.520;2023-04-07T07:33:18;4.88;;;4.45;;
28427;SDS011;15662;49.128;8.520;2023-04-07T07:35:46;5.40;;;4.70;;
28427;SDS011;15662;49.128;8.520;2023-04-07T07:38:14;4.70;;;4.30;;
28427;SDS011;15662;49.128;8.520;2023-04-07T07:40:43;5.03;;;4.53;;
28427;SDS011;15662;49.128;8.520;2023-04-07T07:43:13;6.55;;;4.50;;
28427;SDS011;15662;49.128;8.520;2023-04-07T07:45:41;4.13;;;3.80;;
28427;SDS011;15662;49.128;8.520;2023-04-07T07:48:09;4.88;;;4.40;;
28427;SDS011;15662;49.128;8.520;2023-04-07T07:50:37;4.43;;;4.03;;
28427;SDS011;15662;49.128;8.520;2023-04-07T07:53:05;4.25;;;3.75;;
28427;SDS011;15662;49.128;8.520;2023-04-07T07:55:33;4.70;;;4.07;;
28427;SDS011;15662;49.128;8.520;2023-04-07T07:58:01;4.20;;;3.80;;
28427;SDS011;15662;49.128;8.520;2023-04-07T08:00:29;3.95;;;3.33;;
28427;SDS011;15662;49.128;8.520;2023-04-07T08:02:56;4.20;;;3.40;;
28427;SDS011;15662;49.128;8.520;2023-04-07T08:05:24;3.60;;;3.30;;
28427;SDS011;15662;49.128;8.520;2023-04-07T08:07:52;4.22;;;3.45;;
28427;SDS011;15662;49.128;8.520;2023-04-07T08:10:21;3.50;;;3.17;;
28427;SDS011;15662;49.128;8.520;2023-04-07T08:12:51;4.72;;;3.42;;
28427;SDS011;15662;49.128;8.520;2023-04-07T08:15:19;5.88;;;3.10;;
28427;SDS011;15662;49.128;8.520;2023-04-07T08:17:49;3.53;;;2.90;;
28427;SDS011;15662;49.128;8.520;2023-04-07T08:20:19;3.30;;;2.83;;
28427;SDS011;15662;49.128;8.520;2023-04-07T08:22:47;3.17;;;2.70;;
28427;SDS011;15662;49.128;8.520;2023-04-07T08:25:15;5.65;;;2.90;;
28427;SDS011;15662;49.128;8.520;2023-04-07T08:27:43;3.40;;;2.67;;
28427;SDS011;15662;49.128;8.520;2023-04-07T08:30:12;3.70;;;2.65;;
28427;SDS011;15662;49.128;8.520;2023-04-07T08:32:43;3.78;;;2.90;;
28427;SDS011;15662;49.128;8.520;2023-04-07T08:35:11;2.67;;;2.47;;
28427;SDS011;15662;49.128;8.520;2023-04-07T08:37:39;3.25;;;2.90;;
28427;SDS011;15662;49.128;8.520;2023-04-07T08:40:08;6.53;;;3.30;;
28427;SDS011;15662;49.128;8.520;2023-04-07T08:42:39;5.60;;;2.90;;
28427;SDS011;15662;49.128;8.520;2023-04-07T08:45:13;4.55;;;2.75;;
28427;SDS011;15662;49.128;8.520;2023-04-07T08:47:46;3.13;;;2.40;;
28427;SDS011;15662;49.128;8.520;2023-04-07T08:50:19;4.18;;;2.60;;
28427;SDS011;15662;49.128;8.520;2023-04-07T08:52:55;5.57;;;2.58;;
28427;SDS011;15662;49.128;8.520;2023-04-07T08:55:26;3.58;;;2.13;;
28427;SDS011;15662;49.128;8.520;2023-04-07T08:57:54;3.03;;;2.10;;
28427;SDS011;15662;49.128;8.520;2023-04-07T09:00:23;5.43;;;2.10;;
28427;SDS011;15662;49.128;8.520;2023-04-07T09:02:51;4.93;;;2.00;;
28427;SDS011;15662;49.128;8.520;2023-04-07T09:05:19;2.55;;;2.20;;
28427;SDS011;15662;49.128;8.520;2023-04-07T09:07:48;2.20;;;1.90;;
28427;SDS011;15662;49.128;8.520;2023-04-07T09:10:16;3.17;;;2.13;;
28427;SDS011;15662;49.128;8.520;2023-04-07T09:12:44;2.35;;;1.88;;
28427;SDS011;15662;49.128;8.520;2023-04-07T09:15:13;3.88;;;2.13;;
28427;SDS011;15662;49.128;8.520;2023-04-07T09:17:42;3.47;;;2.03;;
28427;SDS011;15662;49.128;8.520;2023-04-07T09:20:10;3.53;;;1.95;;
28427;SDS011;15662;49.128;8.520;2023-04-07T09:22:39;4.10;;;1.83;;
28427;SDS011;15662;49.128;8.520;2023-04-07T09:25:16;3.67;;;2.42;;
28427;SDS011;15662;49.128;8.520;2023-04-07T09:30:28;2.88;;;2.40;;
28427;SDS011;15662;49.128;8.520;2023-04-07T09:32:58;1.92;;;1.80;;
28427;SDS011;15662;49.128;8.520;2023-04-07T09:35:27;4.57;;;2.13;;
28427;SDS011;15662;49.128;8.520;2023-04-07T09:40:35;5.40;;;2.38;;
28427;SDS011;15662;49.128;8.520;2023-04-07T09:43:04;4.55;;;2.00;;
28427;SDS011;15662;49.128;8.520;2023-04-07T09:45:32;3.08;;;2.00;;
28427;SDS011;15662;49.128;8.520;2023-04-07T09:48:06;4.32;;;1.90;;
28427;SDS011;15662;49.128;8.520;2023-04-07T09:50:43;3.55;;;1.85;;
28427;SDS011;15662;49.128;8.520;2023-04-07T09:53:16;4.57;;;1.92;;
28427;SDS011;15662;49.128;8.520;2023-04-07T09:55:49;3.08;;;1.55;;
28427;SDS011;15662;49.128;8.520;2023-04-07T09:58:18;3.92;;;1.50;;
28427;SDS011;15662;49.128;8.520;2023-04-07T10:00:46;6.10;;;1.40;;
28427;SDS011;15662;49.128;8.520;2023-04-07T10:03:15;2.40;;;1.40;;
28427;SDS011;15662;49.128;8.520;2023-04-07T10:05:45;2.55;;;1.42;;
28427;SDS011;15662;49.128;8.520;2023-04-07T10:08:14;5.05;;;1.40;;
28427;SDS011;15662;49.128;8.520;2023-04-07T10:10:42;4.25;;;1.65;;
28427;SDS011;15662;49.128;8.520;2023-04-07T10:13:11;1.85;;;1.25;;
28427;SDS011;15662;49.128;8.520;2023-04-07T10:15:39;3.78;;;1.25;;
28427;SDS011;15662;49.128;8.520;2023-04-07T10:18:07;2.92;;;1.80;;
28427;SDS011;15662;49.128;8.520;2023-04-07T10:20:36;1.80;;;1.42;;
28427;SDS011;15662;49.128;8.520;2023-04-07T10:26:42;3.42;;;1.75;;
28427;SDS011;15662;49.128;8.520;2023-04-07T10:29:11;6.50;;;1.73;;
28427;SDS011;15662;49.128;8.520;2023-04-07T10:31:41;2.45;;;1.40;;
28427;SDS011;15662;49.128;8.520;2023-04-07T10:34:10;2.00;;;1.20;;
28427;SDS011;15662;49.128;8.520;2023-04-07T10:37:25;2.65;;;1.25;;
28427;SDS011;15662;49.128;8.520;2023-04-07T10:39:40;2.17;;;1.38;;
28427;SDS011;15662;49.128;8.520;2023-04-07T10:45:05;2.65;;;1.50;;
28427;SDS011;15662;49.128;8.520;2023-04-07T10:50:29;3.40;;;1.30;;
28427;SDS011;15662;49.128;8.520;2023-04-07T10:53:06;2.40;;;1.48;;
28427;SDS011;15662;49.128;8.520;2023-04-07T10:55:41;3.67;;;1.45;;
28427;SDS011;15662;49.128;8.520;2023-04-07T11:03:39;2.15;;;1.65;;
28427;SDS011;15662;49.128;8.520;2023-04-07T11:06:19;2.88;;;2.00;;
28427;SDS011;15662;49.128;8.520;2023-04-07T11:08:47;3.22;;;1.70;;
28427;SDS011;15662;49.128;8.520;2023-04-07T11:11:33;5.82;;;1.70;;
28427;SDS011;15662;49.128;8.520;2023-04-07T11:14:10;2.35;;;1.48;;
28427;SDS011;15662;49.128;8.520;2023-04-07T11:16:51;2.60;;;1.50;;
28427;SDS011;15662;49.128;8.520;2023-04-07T11:19:21;4.55;;;1.73;;
28427;SDS011;15662;49.128;8.520;2023-04-07T11:24:56;5.25;;;1.88;;
28427;SDS011;15662;49.128;8.520;2023-04-07T11:27:24;2.72;;;1.48;;
28427;SDS011;15662;49.128;8.520;2023-04-07T11:29:55;3.42;;;1.90;;
28427;SDS011;15662;49.128;8.520;2023-04-07T11:32:23;4.10;;;2.00;;
28427;SDS011;15662;49.128;8.520;2023-04-07T11:34:54;4.18;;;2.00;;
28427;SDS011;15662;49.128;8.520;2023-04-07T11:37:24;8.30;;;2.35;;
28427;SDS011;15662;49.128;8.520;2023-04-07T11:39:53;3.83;;;1.63;;
28427;SDS011;15662;49.128;8.520;2023-04-07T11:42:36;2.50;;;1.08;;
28427;SDS011;15662;49.128;8.520;2023-04-07T11:45:14;1.77;;;1.00;;
28427;SDS011;15662;49.128;8.520;2023-04-07T11:47:44;1.15;;;1.02;;
28427;SDS011;15662;49.128;8.520;2023-04-07T11:50:12;1.75;;;0.93;;
28427;SDS011;15662;49.128;8.520;2023-04-07T11:52:44;2.38;;;1.00;;
28427;SDS011;15662;49.128;8.520;2023-04-07T11:55:16;2.25;;;0.90;;
28427;SDS011;15662;49.128;8.520;2023-04-07T11:57:49;1.45;;;1.00;;
28427;SDS011;15662;49.128;8.520;2023-04-07T12:00:18;1.65;;;1.02;;
28427;SDS011;15662;49.128;8.520;2023-04-07T12:02:49;0.98;;;0.90;;
28427;SDS011;15662;49.128;8.520;2023-04-07T12:05:17;1.40;;;1.00;;
28427;SDS011;15662;49.128;8.520;2023-04-07T12:07:52;1.50;;;0.90;;
28427;SDS011;15662;49.128;8.520;2023-04-07T12:10:22;1.50;;;0.77;;
28427;SDS011;15662;49.128;8.520;2023-04-07T12:12:54;1.75;;;0.90;;
28427;SDS011;15662;49.128;8.520;2023-04-07T12:15:25;1.00;;;0.73;;
28427;SDS011;15662;49.128;8.520;2023-04-07T12:17:53;2.83;;;0.90;;
28427;SDS011;15662;49.128;8.520;2023-04-07T12:20:22;0.80;;;0.80;;
28427;SDS011;15662;49.128;8.520;2023-04-07T12:22:50;1.33;;;0.90;;
28427;SDS011;15662;49.128;8.520;2023-04-07T12:25:19;1.45;;;0.63;;
28427;SDS011;15662;49.128;8.520;2023-04-07T12:27:47;1.08;;;0.98;;
28427;SDS011;15662;49.128;8.520;2023-04-07T12:30:15;1.95;;;0.70;;
28427;SDS011;15662;49.128;8.520;2023-04-07T12:32:43;1.58;;;0.80;;
28427;SDS011;15662;49.128;8.520;2023-04-07T12:35:11;0.60;;;0.60;;
28427;SDS011;15662;49.128;8.520;2023-04-07T12:37:39;0.95;;;0.85;;
28427;SDS011;15662;49.128;8.520;2023-04-07T12:40:07;1.33;;;0.80;;
28427;SDS011;15662;49.128;8.520;2023-04-07T12:42:36;0.70;;;0.70;;
28427;SDS011;15662;49.128;8.520;2023-04-07T12:45:04;1.20;;;0.93;;
28427;SDS011;15662;49.128;8.520;2023-04-07T12:47:33;1.52;;;0.57;;
28427;SDS011;15662;49.128;8.520;2023-04-07T12:50:01;1.33;;;0.70;;
28427;SDS011;15662;49.128;8.520;2023-04-07T12:52:29;0.52;;;0.52;;
28427;SDS011;15662;49.128;8.520;2023-04-07T12:54:58;0.50;;;0.50;;
28427;SDS011;15662;49.128;8.520;2023-04-07T12:57:26;1.00;;;0.60;;
28427;SDS011;15662;49.128;8.520;2023-04-07T12:59:56;0.75;;;0.63;;
28427;SDS011;15662;49.128;8.520;2023-04-07T13:02:25;0.75;;;0.60;;
28427;SDS011;15662;49.128;8.520;2023-04-07T13:04:54;0.70;;;0.57;;
28427;SDS011;15662;49.128;8.520;2023-04-07T13:07:22;0.93;;;0.85;;
28427;SDS011;15662;49.128;8.520;2023-04-07T13:09:50;0.93;;;0.80;;
28427;SDS011;15662;49.128;8.520;2023-04-07T13:12:17;0.68;;;0.63;;
28427;SDS011;15662;49.128;8.520;2023-04-07T13:14:46;0.43;;;0.40;;
28427;SDS011;15662;49.128;8.520;2023-04-07T13:17:26;0.60;;;0.60;;
28427;SDS011;15662;49.128;8.520;2023-04-07T13:19:55;0.40;;;0.40;;
28427;SDS011;15662;49.128;8.520;2023-04-07T13:22:23;0.60;;;0.60;;
28427;SDS011;15662;49.128;8.520;2023-04-07T13:24:51;0.52;;;0.50;;
28427;SDS011;15662;49.128;8.520;2023-04-07T13:27:19;0.38;;;0.38;;
28427;SDS011;15662;49.128;8.520;2023-04-07T13:29:47;0.52;;;0.50;;
28427;SDS011;15662;49.128;8.520;2023-04-07T13:32:15;0.50;;;0.50;;
28427;SDS011;15662;49.128;8.520;2023-04-07T13:34:43;0.73;;;0.55;;
28427;SDS011;15662;49.128;8.520;2023-04-07T13:37:12;0.32;;;0.32;;
28427;SDS011;15662;49.128;8.520;2023-04-07T13:39:40;1.05;;;0.50;;
28427;SDS011;15662;49.128;8.520;2023-04-07T13:42:09;0.85;;;0.70;;
28427;SDS011;15662;49.128;8.520;2023-04-07T13:44:38;0.70;;;0.60;;
28427;SDS011;15662;49.128;8.520;2023-04-07T13:47:07;1.48;;;1.30;;
28427;SDS011;15662;49.128;8.520;2023-04-07T13:49:35;0.95;;;0.95;;
28427;SDS011;15662;49.128;8.520;2023-04-07T13:52:04;1.77;;;0.90;;
28427;SDS011;15662;49.128;8.520;2023-04-07T13:54:32;0.80;;;0.80;;
28427;SDS011;15662;49.128;8.520;2023-04-07T13:57:06;3.15;;;2.95;;
28427;SDS011;15662;49.128;8.520;2023-04-07T13:59:35;1.30;;;1.20;;
28427;SDS011;15662;49.128;8.520;2023-04-07T14:02:03;1.38;;;1.33;;
28427;SDS011;15662;49.128;8.520;2023-04-07T14:04:31;1.08;;;1.08;;
28427;SDS011;15662;49.128;8.520;2023-04-07T14:06:59;1.10;;;1.00;;
28427;SDS011;15662;49.128;8.520;2023-04-07T14:09:27;1.85;;;0.95;;
28427;SDS011;15662;49.128;8.520;2023-04-07T14:11:56;1.58;;;0.93;;
28427;SDS011;15662;49.128;8.520;2023-04-07T14:14:24;0.90;;;0.90;;
28427;SDS011;15662;49.128;8.520;2023-04-07T14:16:52;0.80;;;0.80;;
28427;SDS011;15662;49.128;8.520;2023-04-07T14:19:22;1.95;;;0.95;;
28427;SDS011;15662;49.128;8.520;2023-04-07T14:21:51;0.80;;;0.80;;
28427;SDS011;15662;49.128;8.520;2023-04-07T14:24:19;1.10;;;1.00;;
28427;SDS011;15662;49.128;8.520;2023-04-07T14:26:47;0.90;;;0.82;;
28427;SDS011;15662;49.128;8.520;2023-04-07T14:29:16;1.00;;;1.00;;
28427;SDS011;15662;49.128;8.520;2023-04-07T14:31:44;0.98;;;0.98;;
28427;SDS011;15662;49.128;8.520;2023-04-07T14:34:14;1.40;;;1.30;;
28427;SDS011;15662;49.128;8.520;2023-04-07T14:36:51;1.05;;;1.05;;
28427;SDS011;15662;49.128;8.520;2023-04-07T14:39:21;2.92;;;2.72;;
28427;SDS011;15662;49.128;8.520;2023-04-07T14:41:51;1.77;;;1.50;;
28427;SDS011;15662;49.128;8.520;2023-04-07T14:44:20;1.25;;;1.17;;
28427;SDS011;15662;49.128;8.520;2023-04-07T14:46:48;1.17;;;1.17;;
28427;SDS011;15662;49.128;8.520;2023-04-07T14:49:17;2.58;;;0.98;;
28427;SDS011;15662;49.128;8.520;2023-04-07T14:51:45;0.90;;;0.90;;
28427;SDS011;15662;49.128;8.520;2023-04-07T14:54:13;0.70;;;0.70;;
28427;SDS011;15662;49.128;8.520;2023-04-07T14:56:41;0.93;;;0.93;;
28427;SDS011;15662;49.128;8.520;2023-04-07T14:59:10;0.70;;;0.70;;
28427;SDS011;15662;49.128;8.520;2023-04-07T15:01:38;0.82;;;0.57;;
28427;SDS011;15662;49.128;8.520;2023-04-07T15:04:08;0.70;;;0.70;;
28427;SDS011;15662;49.128;8.520;2023-04-07T15:06:37;0.63;;;0.60;;
28427;SDS011;15662;49.128;8.520;2023-04-07T15:09:08;0.50;;;0.50;;
28427;SDS011;15662;49.128;8.520;2023-04-07T15:11:37;0.55;;;0.55;;
28427;SDS011;15662;49.128;8.520;2023-04-07T15:14:06;0.77;;;0.77;;
28427;SDS011;15662;49.128;8.520;2023-04-07T15:16:34;0.70;;;0.70;;
28427;SDS011;15662;49.128;8.520;2023-04-07T15:19:03;0.70;;;0.70;;
28427;SDS011;15662;49.128;8.520;2023-04-07T15:21:31;0.63;;;0.63;;
28427;SDS011;15662;49.128;8.520;2023-04-07T15:23:58;0.50;;;0.50;;
28427;SDS011;15662;49.128;8.520;2023-04-07T15:26:26;0.70;;;0.70;;
28427;SDS011;15662;49.128;8.520;2023-04-07T15:28:54;0.80;;;0.80;;
28427;SDS011;15662;49.128;8.520;2023-04-07T15:31:22;1.20;;;0.90;;
28427;SDS011;15662;49.128;8.520;2023-04-07T15:36:22;0.82;;;0.82;;
28427;SDS011;15662;49.128;8.520;2023-04-07T15:38:50;0.90;;;0.90;;
28427;SDS011;15662;49.128;8.520;2023-04-07T15:41:18;1.30;;;0.90;;
28427;SDS011;15662;49.128;8.520;2023-04-07T15:43:46;0.63;;;0.63;;
28427;SDS011;15662;49.128;8.520;2023-04-07T15:46:14;0.60;;;0.60;;